sensor_id;sensor_type;location;lat;lon;timestamp;P1;durP1;ratioP1;P2;durP2;ratioP2
42110;SDS011;27766;52.174;5.456;2023-04-24T00:09:49;1.58;;;1.48;;
42110;SDS011;27766;52.174;5.456;2023-04-24T00:12:18;4.20;;;1.65;;
42110;SDS011;27766;52.174;5.456;2023-04-24T00:14:45;1.65;;;1.30;;
42110;SDS011;27766;52.174;5.456;2023-04-24T00:17:15;1.95;;;1.30;;
42110;SDS011;27766;52.174;5.456;2023-04-24T00:19:42;2.42;;;1.23;;
42110;SDS011;27766;52.174;5.456;2023-04-24T00:22:09;1.98;;;1.30;;
42110;SDS011;27766;52.174;5.456;2023-04-24T00:24:37;1.25;;;1.00;;
42110;SDS011;27766;52.174;5.456;2023-04-24T00:27:04;1.23;;;0.85;;
42110;SDS011;27766;52.174;5.456;2023-04-24T00:29:31;2.25;;;0.80;;
42110;SDS011;27766;52.174;5.456;2023-04-24T00:31:58;1.10;;;1.00;;
42110;SDS011;27766;52.174;5.456;2023-04-24T00:34:26;1.42;;;0.88;;
42110;SDS011;27766;52.174;5.456;2023-04-24T00:36:53;1.30;;;1.20;;
42110;SDS011;27766;52.174;5.456;2023-04-24T00:39:21;6.85;;;1.85;;
42110;SDS011;27766;52.174;5.456;2023-04-24T00:41:49;2.17;;;1.80;;
42110;SDS011;27766;52.174;5.456;2023-04-24T00:44:18;2.13;;;1.45;;
42110;SDS011;27766;52.174;5.456;2023-04-24T00:46:45;2.28;;;1.50;;
42110;SDS011;27766;52.174;5.456;2023-04-24T00:49:13;1.88;;;1.40;;
42110;SDS011;27766;52.174;5.456;2023-04-24T00:51:41;2.10;;;1.42;;
42110;SDS011;27766;52.174;5.456;2023-04-24T00:54:12;1.92;;;1.55;;
42110;SDS011;27766;52.174;5.456;2023-04-24T00:56:40;2.22;;;1.60;;
42110;SDS011;27766;52.174;5.456;2023-04-24T00:59:08;3.13;;;1.48;;
42110;SDS011;27766;52.174;5.456;2023-04-24T01:01:35;2.35;;;1.77;;
42110;SDS011;27766;52.174;5.456;2023-04-24T01:04:03;2.15;;;1.48;;
42110;SDS011;27766;52.174;5.456;2023-04-24T01:06:30;3.50;;;2.38;;
42110;SDS011;27766;52.174;5.456;2023-04-24T01:08:58;1.60;;;1.50;;
42110;SDS011;27766;52.174;5.456;2023-04-24T01:11:27;1.88;;;1.70;;
42110;SDS011;27766;52.174;5.456;2023-04-24T01:13:54;3.00;;;2.17;;
42110;SDS011;27766;52.174;5.456;2023-04-24T01:16:22;3.33;;;2.22;;
42110;SDS011;27766;52.174;5.456;2023-04-24T01:18:50;2.70;;;2.13;;
42110;SDS011;27766;52.174;5.456;2023-04-24T01:21:18;2.78;;;2.58;;
42110;SDS011;27766;52.174;5.456;2023-04-24T01:23:48;2.58;;;2.38;;
42110;SDS011;27766;52.174;5.456;2023-04-24T01:26:16;3.05;;;2.67;;
42110;SDS011;27766;52.174;5.456;2023-04-24T01:28:44;4.68;;;3.13;;
42110;SDS011;27766;52.174;5.456;2023-04-24T01:31:11;3.75;;;3.28;;
42110;SDS011;27766;52.174;5.456;2023-04-24T01:33:38;3.75;;;3.42;;
42110;SDS011;27766;52.174;5.456;2023-04-24T01:36:06;4.68;;;3.65;;
42110;SDS011;27766;52.174;5.456;2023-04-24T01:38:34;4.00;;;3.60;;
42110;SDS011;27766;52.174;5.456;2023-04-24T01:41:01;4.28;;;3.72;;
42110;SDS011;27766;52.174;5.456;2023-04-24T01:43:29;8.05;;;4.88;;
42110;SDS011;27766;52.174;5.456;2023-04-24T01:45:56;10.27;;;4.55;;
42110;SDS011;27766;52.174;5.456;2023-04-24T01:48:23;5.32;;;4.00;;
42110;SDS011;27766;52.174;5.456;2023-04-24T01:50:50;4.47;;;4.00;;
42110;SDS011;27766;52.174;5.456;2023-04-24T01:53:18;6.43;;;4.05;;
42110;SDS011;27766;52.174;5.456;2023-04-24T01:55:45;4.55;;;4.03;;
42110;SDS011;27766;52.174;5.456;2023-04-24T01:58:13;6.72;;;4.18;;
42110;SDS011;27766;52.174;5.456;2023-04-24T02:00:40;4.57;;;3.88;;
42110;SDS011;27766;52.174;5.456;2023-04-24T02:03:07;5.65;;;4.50;;
42110;SDS011;27766;52.174;5.456;2023-04-24T02:05:35;5.85;;;4.60;;
42110;SDS011;27766;52.174;5.456;2023-04-24T02:08:01;6.47;;;4.97;;
42110;SDS011;27766;52.174;5.456;2023-04-24T02:10:29;6.22;;;4.35;;
42110;SDS011;27766;52.174;5.456;2023-04-24T02:12:56;4.93;;;4.30;;
42110;SDS011;27766;52.174;5.456;2023-04-24T02:15:23;6.45;;;4.50;;
42110;SDS011;27766;52.174;5.456;2023-04-24T02:17:50;6.85;;;4.93;;
42110;SDS011;27766;52.174;5.456;2023-04-24T02:20:18;7.47;;;5.10;;
42110;SDS011;27766;52.174;5.456;2023-04-24T02:22:45;7.10;;;5.25;;
42110;SDS011;27766;52.174;5.456;2023-04-24T02:25:12;6.32;;;4.53;;
42110;SDS011;27766;52.174;5.456;2023-04-24T02:27:39;5.28;;;4.78;;
42110;SDS011;27766;52.174;5.456;2023-04-24T02:30:06;7.20;;;5.20;;
42110;SDS011;27766;52.174;5.456;2023-04-24T02:32:34;6.35;;;5.60;;
42110;SDS011;27766;52.174;5.456;2023-04-24T02:35:02;7.30;;;4.75;;
42110;SDS011;27766;52.174;5.456;2023-04-24T02:37:29;8.43;;;6.07;;
42110;SDS011;27766;52.174;5.456;2023-04-24T02:39:56;9.48;;;6.60;;
42110;SDS011;27766;52.174;5.456;2023-04-24T02:42:23;7.57;;;6.28;;
42110;SDS011;27766;52.174;5.456;2023-04-24T02:44:50;8.55;;;5.88;;
42110;SDS011;27766;52.174;5.456;2023-04-24T02:47:19;6.90;;;5.30;;
42110;SDS011;27766;52.174;5.456;2023-04-24T02:49:46;6.88;;;5.63;;
42110;SDS011;27766;52.174;5.456;2023-04-24T02:52:13;6.78;;;5.50;;
42110;SDS011;27766;52.174;5.456;2023-04-24T02:54:41;6.60;;;5.32;;
42110;SDS011;27766;52.174;5.456;2023-04-24T02:57:09;6.38;;;5.10;;
42110;SDS011;27766;52.174;5.456;2023-04-24T02:59:36;7.35;;;6.20;;
42110;SDS011;27766;52.174;5.456;2023-04-24T03:02:03;9.20;;;5.50;;
42110;SDS011;27766;52.174;5.456;2023-04-24T03:04:31;9.55;;;4.75;;
42110;SDS011;27766;52.174;5.456;2023-04-24T03:06:59;5.97;;;4.15;;
42110;SDS011;27766;52.174;5.456;2023-04-24T03:09:26;4.25;;;3.85;;
42110;SDS011;27766;52.174;5.456;2023-04-24T03:11:53;3.67;;;3.10;;
42110;SDS011;27766;52.174;5.456;2023-04-24T03:14:20;4.50;;;3.50;;
42110;SDS011;27766;52.174;5.456;2023-04-24T03:16:48;4.78;;;3.45;;
42110;SDS011;27766;52.174;5.456;2023-04-24T03:19:15;3.35;;;2.80;;
42110;SDS011;27766;52.174;5.456;2023-04-24T03:21:42;5.13;;;2.92;;
42110;SDS011;27766;52.174;5.456;2023-04-24T03:24:09;4.30;;;2.65;;
42110;SDS011;27766;52.174;5.456;2023-04-24T03:26:36;2.75;;;2.15;;
42110;SDS011;27766;52.174;5.456;2023-04-24T03:29:03;2.63;;;1.83;;
42110;SDS011;27766;52.174;5.456;2023-04-24T03:31:30;2.42;;;1.17;;
42110;SDS011;27766;52.174;5.456;2023-04-24T03:33:57;2.10;;;1.17;;
42110;SDS011;27766;52.174;5.456;2023-04-24T03:36:24;2.55;;;1.05;;
42110;SDS011;27766;52.174;5.456;2023-04-24T03:38:52;1.05;;;0.95;;
42110;SDS011;27766;52.174;5.456;2023-04-24T03:41:19;1.08;;;0.80;;
42110;SDS011;27766;52.174;5.456;2023-04-24T03:43:47;1.08;;;0.98;;
42110;SDS011;27766;52.174;5.456;2023-04-24T03:46:14;2.20;;;1.13;;
42110;SDS011;27766;52.174;5.456;2023-04-24T03:48:42;3.65;;;1.50;;
42110;SDS011;27766;52.174;5.456;2023-04-24T03:51:09;1.52;;;1.05;;
42110;SDS011;27766;52.174;5.456;2023-04-24T03:53:36;1.30;;;0.95;;
42110;SDS011;27766;52.174;5.456;2023-04-24T03:56:03;0.82;;;0.70;;
42110;SDS011;27766;52.174;5.456;2023-04-24T03:58:30;1.48;;;1.08;;
42110;SDS011;27766;52.174;5.456;2023-04-24T04:00:57;2.33;;;1.27;;
42110;SDS011;27766;52.174;5.456;2023-04-24T04:03:25;2.70;;;1.42;;
42110;SDS011;27766;52.174;5.456;2023-04-24T04:05:53;1.45;;;1.02;;
42110;SDS011;27766;52.174;5.456;2023-04-24T04:08:20;1.25;;;1.05;;
42110;SDS011;27766;52.174;5.456;2023-04-24T04:10:48;1.40;;;1.08;;
42110;SDS011;27766;52.174;5.456;2023-04-24T04:13:15;2.22;;;0.75;;
42110;SDS011;27766;52.174;5.456;2023-04-24T04:15:42;2.28;;;0.80;;
42110;SDS011;27766;52.174;5.456;2023-04-24T04:18:10;1.83;;;1.00;;
42110;SDS011;27766;52.174;5.456;2023-04-24T04:20:37;2.45;;;1.05;;
42110;SDS011;27766;52.174;5.456;2023-04-24T04:23:05;2.10;;;0.90;;
42110;SDS011;27766;52.174;5.456;2023-04-24T04:25:32;1.67;;;1.00;;
42110;SDS011;27766;52.174;5.456;2023-04-24T04:27:59;1.42;;;0.90;;
42110;SDS011;27766;52.174;5.456;2023-04-24T04:30:26;1.27;;;0.75;;
42110;SDS011;27766;52.174;5.456;2023-04-24T04:32:56;0.98;;;0.80;;
42110;SDS011;27766;52.174;5.456;2023-04-24T04:35:23;3.22;;;0.80;;
42110;SDS011;27766;52.174;5.456;2023-04-24T04:37:52;1.60;;;0.88;;
42110;SDS011;27766;52.174;5.456;2023-04-24T04:40:20;1.50;;;0.80;;
42110;SDS011;27766;52.174;5.456;2023-04-24T04:42:48;0.80;;;0.63;;
42110;SDS011;27766;52.174;5.456;2023-04-24T04:45:15;1.67;;;0.80;;
42110;SDS011;27766;52.174;5.456;2023-04-24T04:47:43;1.27;;;0.90;;
42110;SDS011;27766;52.174;5.456;2023-04-24T04:50:11;2.20;;;1.23;;
42110;SDS011;27766;52.174;5.456;2023-04-24T04:52:38;2.55;;;1.20;;
42110;SDS011;27766;52.174;5.456;2023-04-24T04:55:05;6.60;;;1.70;;
42110;SDS011;27766;52.174;5.456;2023-04-24T04:57:33;3.22;;;2.08;;
42110;SDS011;27766;52.174;5.456;2023-04-24T05:00:00;2.45;;;2.03;;
42110;SDS011;27766;52.174;5.456;2023-04-24T05:02:28;2.85;;;2.35;;
42110;SDS011;27766;52.174;5.456;2023-04-24T05:04:55;3.80;;;2.13;;
42110;SDS011;27766;52.174;5.456;2023-04-24T05:07:22;6.68;;;2.70;;
42110;SDS011;27766;52.174;5.456;2023-04-24T05:09:49;3.00;;;2.20;;
42110;SDS011;27766;52.174;5.456;2023-04-24T05:12:19;4.97;;;2.50;;
42110;SDS011;27766;52.174;5.456;2023-04-24T05:14:46;4.10;;;2.92;;
42110;SDS011;27766;52.174;5.456;2023-04-24T05:17:13;5.57;;;2.90;;
42110;SDS011;27766;52.174;5.456;2023-04-24T05:19:40;7.13;;;3.00;;
42110;SDS011;27766;52.174;5.456;2023-04-24T05:22:08;4.28;;;3.72;;
42110;SDS011;27766;52.174;5.456;2023-04-24T05:24:36;4.20;;;3.33;;
42110;SDS011;27766;52.174;5.456;2023-04-24T05:27:03;4.57;;;3.42;;
42110;SDS011;27766;52.174;5.456;2023-04-24T05:29:31;7.93;;;3.90;;
42110;SDS011;27766;52.174;5.456;2023-04-24T05:32:00;8.57;;;4.15;;
42110;SDS011;27766;52.174;5.456;2023-04-24T05:34:27;5.50;;;3.53;;
42110;SDS011;27766;52.174;5.456;2023-04-24T05:36:54;5.63;;;3.47;;
42110;SDS011;27766;52.174;5.456;2023-04-24T05:39:22;5.07;;;3.67;;
42110;SDS011;27766;52.174;5.456;2023-04-24T05:41:52;3.95;;;3.20;;
42110;SDS011;27766;52.174;5.456;2023-04-24T05:44:19;5.47;;;3.45;;
42110;SDS011;27766;52.174;5.456;2023-04-24T05:46:46;3.60;;;2.78;;
42110;SDS011;27766;52.174;5.456;2023-04-24T05:49:13;4.53;;;2.95;;
42110;SDS011;27766;52.174;5.456;2023-04-24T05:51:41;4.57;;;3.55;;
42110;SDS011;27766;52.174;5.456;2023-04-24T05:54:08;11.70;;;4.20;;
42110;SDS011;27766;52.174;5.456;2023-04-24T05:56:35;3.90;;;3.25;;
42110;SDS011;27766;52.174;5.456;2023-04-24T05:59:02;4.25;;;3.63;;
42110;SDS011;27766;52.174;5.456;2023-04-24T06:01:30;4.30;;;3.33;;
42110;SDS011;27766;52.174;5.456;2023-04-24T06:03:58;5.53;;;4.15;;
42110;SDS011;27766;52.174;5.456;2023-04-24T06:06:25;4.43;;;2.88;;
42110;SDS011;27766;52.174;5.456;2023-04-24T06:08:53;3.80;;;3.15;;
42110;SDS011;27766;52.174;5.456;2023-04-24T06:11:21;5.15;;;3.05;;
42110;SDS011;27766;52.174;5.456;2023-04-24T06:13:49;2.80;;;2.13;;
42110;SDS011;27766;52.174;5.456;2023-04-24T06:16:17;3.60;;;2.63;;
42110;SDS011;27766;52.174;5.456;2023-04-24T06:18:45;3.42;;;2.13;;
42110;SDS011;27766;52.174;5.456;2023-04-24T06:21:14;12.25;;;2.08;;
42110;SDS011;27766;52.174;5.456;2023-04-24T06:23:43;2.45;;;1.40;;
42110;SDS011;27766;52.174;5.456;2023-04-24T06:26:10;2.00;;;1.48;;
42110;SDS011;27766;52.174;5.456;2023-04-24T06:28:37;1.73;;;1.20;;
42110;SDS011;27766;52.174;5.456;2023-04-24T06:31:05;2.05;;;1.00;;
42110;SDS011;27766;52.174;5.456;2023-04-24T06:33:32;1.55;;;0.98;;
42110;SDS011;27766;52.174;5.456;2023-04-24T06:35:59;1.85;;;0.90;;
42110;SDS011;27766;52.174;5.456;2023-04-24T06:38:26;1.33;;;0.88;;
42110;SDS011;27766;52.174;5.456;2023-04-24T06:40:53;1.10;;;1.00;;
42110;SDS011;27766;52.174;5.456;2023-04-24T06:43:20;5.65;;;2.65;;
42110;SDS011;27766;52.174;5.456;2023-04-24T06:45:48;5.25;;;3.28;;
42110;SDS011;27766;52.174;5.456;2023-04-24T06:48:15;9.48;;;6.85;;
42110;SDS011;27766;52.174;5.456;2023-04-24T06:50:42;14.85;;;9.13;;
42110;SDS011;27766;52.174;5.456;2023-04-24T06:53:09;19.77;;;10.23;;
42110;SDS011;27766;52.174;5.456;2023-04-24T06:55:39;15.15;;;10.20;;
42110;SDS011;27766;52.174;5.456;2023-04-24T06:58:06;15.20;;;11.25;;
42110;SDS011;27766;52.174;5.456;2023-04-24T07:00:33;19.30;;;11.02;;
42110;SDS011;27766;52.174;5.456;2023-04-24T07:03:00;17.02;;;11.05;;
42110;SDS011;27766;52.174;5.456;2023-04-24T07:05:27;18.50;;;10.80;;
42110;SDS011;27766;52.174;5.456;2023-04-24T07:07:54;17.08;;;11.32;;
42110;SDS011;27766;52.174;5.456;2023-04-24T07:10:22;15.00;;;10.27;;
42110;SDS011;27766;52.174;5.456;2023-04-24T07:12:49;18.10;;;11.52;;
42110;SDS011;27766;52.174;5.456;2023-04-24T07:15:18;15.70;;;11.20;;
42110;SDS011;27766;52.174;5.456;2023-04-24T07:17:47;16.50;;;11.07;;
42110;SDS011;27766;52.174;5.456;2023-04-24T07:20:15;20.35;;;12.65;;
42110;SDS011;27766;52.174;5.456;2023-04-24T07:22:42;19.95;;;11.00;;
42110;SDS011;27766;52.174;5.456;2023-04-24T07:25:09;21.15;;;11.38;;
42110;SDS011;27766;52.174;5.456;2023-04-24T07:27:36;26.52;;;12.45;;
42110;SDS011;27766;52.174;5.456;2023-04-24T07:30:04;17.02;;;10.80;;
42110;SDS011;27766;52.174;5.456;2023-04-24T07:32:31;16.13;;;10.18;;
42110;SDS011;27766;52.174;5.456;2023-04-24T07:34:58;20.65;;;10.43;;
42110;SDS011;27766;52.174;5.456;2023-04-24T07:37:26;15.30;;;9.77;;
42110;SDS011;27766;52.174;5.456;2023-04-24T07:39:54;17.33;;;9.45;;
42110;SDS011;27766;52.174;5.456;2023-04-24T07:42:22;19.92;;;9.80;;
42110;SDS011;27766;52.174;5.456;2023-04-24T07:44:49;21.85;;;9.98;;
42110;SDS011;27766;52.174;5.456;2023-04-24T07:47:18;21.25;;;9.30;;
42110;SDS011;27766;52.174;5.456;2023-04-24T07:49:45;15.15;;;8.80;;
42110;SDS011;27766;52.174;5.456;2023-04-24T07:52:12;18.13;;;8.85;;
42110;SDS011;27766;52.174;5.456;2023-04-24T07:54:40;13.38;;;9.38;;
42110;SDS011;27766;52.174;5.456;2023-04-24T07:57:08;15.80;;;9.15;;
42110;SDS011;27766;52.174;5.456;2023-04-24T07:59:35;19.83;;;9.90;;
42110;SDS011;27766;52.174;5.456;2023-04-24T08:02:02;22.27;;;8.70;;
42110;SDS011;27766;52.174;5.456;2023-04-24T08:04:29;22.50;;;9.40;;
42110;SDS011;27766;52.174;5.456;2023-04-24T08:06:56;21.10;;;8.82;;
42110;SDS011;27766;52.174;5.456;2023-04-24T08:09:24;11.02;;;7.85;;
42110;SDS011;27766;52.174;5.456;2023-04-24T08:12:07;15.35;;;8.00;;
42110;SDS011;27766;52.174;5.456;2023-04-24T08:14:34;13.63;;;8.80;;
42110;SDS011;27766;52.174;5.456;2023-04-24T08:17:01;14.73;;;8.80;;
42110;SDS011;27766;52.174;5.456;2023-04-24T08:19:30;13.63;;;6.95;;
42110;SDS011;27766;52.174;5.456;2023-04-24T08:21:57;11.90;;;6.35;;
42110;SDS011;27766;52.174;5.456;2023-04-24T08:24:24;14.57;;;6.72;;
42110;SDS011;27766;52.174;5.456;2023-04-24T08:26:52;12.90;;;6.45;;
42110;SDS011;27766;52.174;5.456;2023-04-24T08:29:20;17.67;;;6.40;;
42110;SDS011;27766;52.174;5.456;2023-04-24T08:31:47;22.77;;;6.13;;
42110;SDS011;27766;52.174;5.456;2023-04-24T08:34:15;21.35;;;6.65;;
42110;SDS011;27766;52.174;5.456;2023-04-24T08:36:42;10.98;;;4.43;;
42110;SDS011;27766;52.174;5.456;2023-04-24T08:39:13;18.23;;;4.78;;
42110;SDS011;27766;52.174;5.456;2023-04-24T08:41:42;11.18;;;4.50;;
42110;SDS011;27766;52.174;5.456;2023-04-24T08:44:12;14.00;;;4.70;;
42110;SDS011;27766;52.174;5.456;2023-04-24T08:46:42;17.73;;;4.57;;
42110;SDS011;27766;52.174;5.456;2023-04-24T08:49:13;11.68;;;4.53;;
42110;SDS011;27766;52.174;5.456;2023-04-24T08:51:43;10.05;;;4.95;;
42110;SDS011;27766;52.174;5.456;2023-04-24T08:54:11;8.50;;;5.65;;
42110;SDS011;27766;52.174;5.456;2023-04-24T08:56:39;10.52;;;5.35;;
42110;SDS011;27766;52.174;5.456;2023-04-24T08:59:08;14.77;;;6.45;;
42110;SDS011;27766;52.174;5.456;2023-04-24T09:01:35;11.85;;;5.15;;
42110;SDS011;27766;52.174;5.456;2023-04-24T09:04:04;17.00;;;6.00;;
42110;SDS011;27766;52.174;5.456;2023-04-24T09:06:33;21.90;;;5.47;;
42110;SDS011;27766;52.174;5.456;2023-04-24T09:09:01;11.82;;;5.55;;
42110;SDS011;27766;52.174;5.456;2023-04-24T09:11:30;9.77;;;3.78;;
42110;SDS011;27766;52.174;5.456;2023-04-24T09:13:58;14.75;;;3.63;;
42110;SDS011;27766;52.174;5.456;2023-04-24T09:16:27;11.45;;;3.35;;
42110;SDS011;27766;52.174;5.456;2023-04-24T09:18:55;6.45;;;2.72;;
42110;SDS011;27766;52.174;5.456;2023-04-24T09:21:22;11.23;;;3.45;;
42110;SDS011;27766;52.174;5.456;2023-04-24T09:23:57;9.50;;;3.08;;
42110;SDS011;27766;52.174;5.456;2023-04-24T09:26:28;8.88;;;2.50;;
42110;SDS011;27766;52.174;5.456;2023-04-24T09:28:58;13.25;;;2.42;;
42110;SDS011;27766;52.174;5.456;2023-04-24T09:31:27;9.77;;;2.88;;
42110;SDS011;27766;52.174;5.456;2023-04-24T09:33:57;4.32;;;2.42;;
42110;SDS011;27766;52.174;5.456;2023-04-24T09:36:29;14.10;;;3.25;;
42110;SDS011;27766;52.174;5.456;2023-04-24T09:39:00;10.43;;;3.25;;
42110;SDS011;27766;52.174;5.456;2023-04-24T09:41:28;11.57;;;2.05;;
42110;SDS011;27766;52.174;5.456;2023-04-24T09:44:10;11.45;;;2.55;;
42110;SDS011;27766;52.174;5.456;2023-04-24T09:46:38;8.25;;;2.22;;
42110;SDS011;27766;52.174;5.456;2023-04-24T09:49:10;5.43;;;2.55;;
42110;SDS011;27766;52.174;5.456;2023-04-24T09:51:39;6.40;;;2.10;;
42110;SDS011;27766;52.174;5.456;2023-04-24T09:54:17;9.05;;;2.55;;
42110;SDS011;27766;52.174;5.456;2023-04-24T09:56:49;10.55;;;2.53;;
42110;SDS011;27766;52.174;5.456;2023-04-24T09:59:19;9.45;;;2.50;;
42110;SDS011;27766;52.174;5.456;2023-04-24T10:01:46;8.95;;;2.38;;
42110;SDS011;27766;52.174;5.456;2023-04-24T10:04:25;2.78;;;1.77;;
42110;SDS011;27766;52.174;5.456;2023-04-24T10:06:55;10.85;;;2.20;;
42110;SDS011;27766;52.174;5.456;2023-04-24T10:09:24;8.43;;;2.28;;
42110;SDS011;27766;52.174;5.456;2023-04-24T10:11:53;5.85;;;2.63;;
42110;SDS011;27766;52.174;5.456;2023-04-24T10:14:23;4.32;;;2.20;;
42110;SDS011;27766;52.174;5.456;2023-04-24T10:16:53;7.50;;;2.33;;
42110;SDS011;27766;52.174;5.456;2023-04-24T10:19:20;6.85;;;2.22;;
42110;SDS011;27766;52.174;5.456;2023-04-24T10:21:49;11.23;;;1.83;;
42110;SDS011;27766;52.174;5.456;2023-04-24T10:24:17;8.50;;;2.03;;
42110;SDS011;27766;52.174;5.456;2023-04-24T10:26:47;9.00;;;2.42;;
42110;SDS011;27766;52.174;5.456;2023-04-24T10:29:18;3.55;;;1.55;;
42110;SDS011;27766;52.174;5.456;2023-04-24T10:31:46;4.18;;;1.35;;
42110;SDS011;27766;52.174;5.456;2023-04-24T10:34:15;4.85;;;1.17;;
42110;SDS011;27766;52.174;5.456;2023-04-24T10:36:46;1.80;;;0.90;;
42110;SDS011;27766;52.174;5.456;2023-04-24T10:39:20;2.90;;;1.23;;
42110;SDS011;27766;52.174;5.456;2023-04-24T10:41:53;3.57;;;0.93;;
42110;SDS011;27766;52.174;5.456;2023-04-24T10:44:24;1.33;;;0.90;;
42110;SDS011;27766;52.174;5.456;2023-04-24T10:46:54;7.80;;;1.20;;
42110;SDS011;27766;52.174;5.456;2023-04-24T10:49:29;1.63;;;0.98;;
42110;SDS011;27766;52.174;5.456;2023-04-24T10:52:01;2.55;;;0.90;;
42110;SDS011;27766;52.174;5.456;2023-04-24T10:54:35;6.60;;;1.35;;
42110;SDS011;27766;52.174;5.456;2023-04-24T10:59:52;3.90;;;1.20;;
42110;SDS011;27766;52.174;5.456;2023-04-24T11:02:40;3.97;;;1.00;;
42110;SDS011;27766;52.174;5.456;2023-04-24T11:05:18;3.17;;;1.30;;
42110;SDS011;27766;52.174;5.456;2023-04-24T11:08:09;2.65;;;0.82;;
42110;SDS011;27766;52.174;5.456;2023-04-24T11:10:46;2.85;;;0.90;;
42110;SDS011;27766;52.174;5.456;2023-04-24T11:13:14;1.70;;;0.93;;
42110;SDS011;27766;52.174;5.456;2023-04-24T11:15:43;1.10;;;0.55;;
42110;SDS011;27766;52.174;5.456;2023-04-24T11:18:14;2.85;;;1.15;;
42110;SDS011;27766;52.174;5.456;2023-04-24T11:20:43;2.13;;;1.25;;
42110;SDS011;27766;52.174;5.456;2023-04-24T11:23:14;5.30;;;1.10;;
42110;SDS011;27766;52.174;5.456;2023-04-24T11:25:42;3.72;;;1.48;;
42110;SDS011;27766;52.174;5.456;2023-04-24T11:28:09;5.45;;;1.25;;
42110;SDS011;27766;52.174;5.456;2023-04-24T11:30:42;3.08;;;0.80;;
42110;SDS011;27766;52.174;5.456;2023-04-24T11:33:10;1.60;;;0.75;;
42110;SDS011;27766;52.174;5.456;2023-04-24T11:35:41;3.85;;;0.88;;
42110;SDS011;27766;52.174;5.456;2023-04-24T11:38:08;4.13;;;1.13;;
42110;SDS011;27766;52.174;5.456;2023-04-24T11:40:39;7.22;;;1.10;;
42110;SDS011;27766;52.174;5.456;2023-04-24T11:43:07;6.60;;;1.15;;
42110;SDS011;27766;52.174;5.456;2023-04-24T11:45:36;8.02;;;1.00;;
42110;SDS011;27766;52.174;5.456;2023-04-24T11:48:03;1.90;;;0.90;;
42110;SDS011;27766;52.174;5.456;2023-04-24T11:50:30;0.70;;;0.50;;
42110;SDS011;27766;52.174;5.456;2023-04-24T11:52:58;0.90;;;0.60;;
42110;SDS011;27766;52.174;5.456;2023-04-24T11:55:27;1.17;;;0.32;;
42110;SDS011;27766;52.174;5.456;2023-04-24T11:57:56;0.82;;;0.45;;
42110;SDS011;27766;52.174;5.456;2023-04-24T12:00:26;0.60;;;0.30;;
42110;SDS011;27766;52.174;5.456;2023-04-24T12:03:08;3.92;;;0.60;;
42110;SDS011;27766;52.174;5.456;2023-04-24T12:05:38;0.98;;;0.40;;
42110;SDS011;27766;52.174;5.456;2023-04-24T12:08:06;2.58;;;0.30;;
42110;SDS011;27766;52.174;5.456;2023-04-24T12:10:34;1.20;;;0.45;;
42110;SDS011;27766;52.174;5.456;2023-04-24T12:13:02;2.25;;;0.60;;
42110;SDS011;27766;52.174;5.456;2023-04-24T12:15:30;1.70;;;0.70;;
42110;SDS011;27766;52.174;5.456;2023-04-24T12:17:57;2.45;;;0.80;;
42110;SDS011;27766;52.174;5.456;2023-04-24T12:20:26;4.05;;;0.93;;
42110;SDS011;27766;52.174;5.456;2023-04-24T12:22:58;1.15;;;0.55;;
42110;SDS011;27766;52.174;5.456;2023-04-24T12:25:33;4.72;;;0.98;;
42110;SDS011;27766;52.174;5.456;2023-04-24T12:30:31;3.08;;;0.85;;
42110;SDS011;27766;52.174;5.456;2023-04-24T12:33:00;2.83;;;0.80;;
42110;SDS011;27766;52.174;5.456;2023-04-24T12:35:30;2.50;;;0.73;;
42110;SDS011;27766;52.174;5.456;2023-04-24T12:38:06;1.23;;;0.40;;
42110;SDS011;27766;52.174;5.456;2023-04-24T12:40:34;2.80;;;0.90;;
42110;SDS011;27766;52.174;5.456;2023-04-24T12:43:02;2.85;;;0.77;;
42110;SDS011;27766;52.174;5.456;2023-04-24T12:45:39;8.05;;;0.85;;
42110;SDS011;27766;52.174;5.456;2023-04-24T12:48:06;0.85;;;0.50;;
42110;SDS011;27766;52.174;5.456;2023-04-24T12:50:33;3.47;;;1.25;;
42110;SDS011;27766;52.174;5.456;2023-04-24T12:53:00;1.73;;;0.90;;
42110;SDS011;27766;52.174;5.456;2023-04-24T12:55:27;4.80;;;0.90;;
42110;SDS011;27766;52.174;5.456;2023-04-24T12:57:54;3.45;;;1.30;;
42110;SDS011;27766;52.174;5.456;2023-04-24T13:00:22;3.80;;;1.58;;
42110;SDS011;27766;52.174;5.456;2023-04-24T13:02:50;8.35;;;2.08;;
42110;SDS011;27766;52.174;5.456;2023-04-24T13:05:18;7.40;;;1.52;;
42110;SDS011;27766;52.174;5.456;2023-04-24T13:07:45;5.60;;;1.92;;
42110;SDS011;27766;52.174;5.456;2023-04-24T13:10:12;4.07;;;2.08;;
42110;SDS011;27766;52.174;5.456;2023-04-24T13:12:40;13.45;;;3.03;;
42110;SDS011;27766;52.174;5.456;2023-04-24T13:15:07;8.20;;;2.33;;
42110;SDS011;27766;52.174;5.456;2023-04-24T13:17:35;4.90;;;2.00;;
42110;SDS011;27766;52.174;5.456;2023-04-24T13:20:02;10.02;;;2.17;;
42110;SDS011;27766;52.174;5.456;2023-04-24T13:22:29;8.98;;;2.33;;
42110;SDS011;27766;52.174;5.456;2023-04-24T13:24:57;9.45;;;2.53;;
42110;SDS011;27766;52.174;5.456;2023-04-24T13:27:24;12.55;;;2.20;;
42110;SDS011;27766;52.174;5.456;2023-04-24T13:29:51;7.82;;;2.38;;
42110;SDS011;27766;52.174;5.456;2023-04-24T13:32:19;10.93;;;2.42;;
42110;SDS011;27766;52.174;5.456;2023-04-24T13:34:46;4.75;;;1.80;;
42110;SDS011;27766;52.174;5.456;2023-04-24T13:37:14;8.15;;;2.35;;
42110;SDS011;27766;52.174;5.456;2023-04-24T13:39:41;14.20;;;2.67;;
42110;SDS011;27766;52.174;5.456;2023-04-24T13:42:08;6.50;;;1.60;;
42110;SDS011;27766;52.174;5.456;2023-04-24T13:44:36;5.82;;;2.03;;
42110;SDS011;27766;52.174;5.456;2023-04-24T13:47:03;6.88;;;2.38;;
42110;SDS011;27766;52.174;5.456;2023-04-24T13:49:30;5.47;;;1.95;;
42110;SDS011;27766;52.174;5.456;2023-04-24T13:51:57;9.18;;;2.55;;
42110;SDS011;27766;52.174;5.456;2023-04-24T13:54:24;5.47;;;2.00;;
42110;SDS011;27766;52.174;5.456;2023-04-24T13:56:55;7.82;;;2.45;;
42110;SDS011;27766;52.174;5.456;2023-04-24T13:59:24;10.98;;;2.55;;
42110;SDS011;27766;52.174;5.456;2023-04-24T14:01:52;5.80;;;2.63;;
42110;SDS011;27766;52.174;5.456;2023-04-24T14:04:20;11.95;;;2.50;;
42110;SDS011;27766;52.174;5.456;2023-04-24T14:06:48;11.50;;;2.60;;
42110;SDS011;27766;52.174;5.456;2023-04-24T14:09:15;11.77;;;2.10;;
42110;SDS011;27766;52.174;5.456;2023-04-24T14:11:42;9.55;;;2.15;;
42110;SDS011;27766;52.174;5.456;2023-04-24T14:14:10;6.40;;;1.52;;
42110;SDS011;27766;52.174;5.456;2023-04-24T14:16:37;9.73;;;2.40;;
42110;SDS011;27766;52.174;5.456;2023-04-24T14:19:04;8.90;;;2.35;;
42110;SDS011;27766;52.174;5.456;2023-04-24T14:21:32;6.65;;;2.03;;
42110;SDS011;27766;52.174;5.456;2023-04-24T14:24:00;8.98;;;2.45;;
42110;SDS011;27766;52.174;5.456;2023-04-24T14:26:27;6.65;;;2.08;;
42110;SDS011;27766;52.174;5.456;2023-04-24T14:28:54;7.82;;;2.78;;
42110;SDS011;27766;52.174;5.456;2023-04-24T14:31:39;13.07;;;2.88;;
42110;SDS011;27766;52.174;5.456;2023-04-24T14:34:07;9.45;;;2.28;;
42110;SDS011;27766;52.174;5.456;2023-04-24T14:36:34;6.28;;;2.67;;
42110;SDS011;27766;52.174;5.456;2023-04-24T14:39:01;9.32;;;2.50;;
42110;SDS011;27766;52.174;5.456;2023-04-24T14:41:33;6.05;;;3.00;;
42110;SDS011;27766;52.174;5.456;2023-04-24T14:44:05;11.85;;;2.97;;
42110;SDS011;27766;52.174;5.456;2023-04-24T14:46:33;6.65;;;2.28;;
42110;SDS011;27766;52.174;5.456;2023-04-24T14:49:00;8.02;;;3.22;;
42110;SDS011;27766;52.174;5.456;2023-04-24T14:51:27;9.52;;;2.60;;
42110;SDS011;27766;52.174;5.456;2023-04-24T14:53:54;7.30;;;2.58;;
42110;SDS011;27766;52.174;5.456;2023-04-24T14:56:23;6.38;;;2.53;;
42110;SDS011;27766;52.174;5.456;2023-04-24T14:58:50;7.07;;;2.35;;
42110;SDS011;27766;52.174;5.456;2023-04-24T15:01:18;12.05;;;2.75;;
42110;SDS011;27766;52.174;5.456;2023-04-24T15:03:45;7.25;;;2.05;;